Crystal Hill, Arkansas
Current Conditions -  °F | °C
As of 6:58 PM on Saturday 20 Dec 2014 (Local Time) from KLRF Reporting Station
Overcast Overcast  
Wind Chill: 42°   Ceiling: 4800
Heat Index: 42°   Visibility: 10mi
Dew Point: 37°   Wind: 1mph
Humidity: 80%   Direction: 90°E
Pressure: 30.24"   Gusts: NA
Location:  34.868°N, 92.3217°W
Report Text: KLRF 210058Z AUTO 09001KT 10SM OVC048 06/03 A3024 RMK AO2 SLP245 T00580026
Loading
Personal Weather Stations






























Interactive Weather Map New forecast layout! Learn more

10-Day Weather Forecast

Advertisements
Track Severe Weather on mobile